Time;durP1;ratioP1;P1;durP2;ratioP2;P2;SDS_P1;SDS_P2;PMS_P1;PMS_P2;Temp;Humidity;BMP_temperature;BMP_pressure;BME280_temperature;BME280_humidity;BME280_pressure;Samples;Min_cycle;Max_cycle;Signal;HPM_P1;HPM_P2
2020/12/07 00:02:05;;;;;;;8.05;5.10;;;;;;;;;;5032989;28;20025;-56
2020/12/07 00:04:31;;;;;;;11.05;5.40;;;;;;;;;;5033158;28;20030;-56
2020/12/07 00:06:57;;;;;;;11.25;4.13;;;;;;;;;;5032425;28;20112;-54
2020/12/07 00:09:24;;;;;;;4.90;3.38;;;;;;;;;;5032844;28;20030;-55
2020/12/07 00:11:50;;;;;;;6.93;3.25;;;;;;;;;;5032636;28;20033;-57
2020/12/07 00:14:16;;;;;;;10.95;2.85;;;;;;;;;;5015070;28;20036;-55
2020/12/07 00:16:44;;;;;;;6.18;4.28;;;;;;;;;;5032975;28;20029;-55
2020/12/07 00:19:10;;;;;;;6.40;3.00;;;;;;;;;;5036346;28;20127;-56
2020/12/07 00:21:36;;;;;;;7.45;3.20;;;;;;;;;;5036304;28;20108;-51
2020/12/07 00:24:02;;;;;;;7.60;3.33;;;;;;;;;;5036764;28;20029;-50
2020/12/07 00:26:28;;;;;;;6.07;3.30;;;;;;;;;;5036356;28;20113;-53
2020/12/07 00:28:58;;;;;;;7.93;3.47;;;;;;;;;;5036551;28;20463;-56
2020/12/07 00:31:25;;;;;;;7.10;3.20;;;;;;;;;;5036119;28;20033;-51
2020/12/07 00:33:52;;;;;;;9.32;3.80;;;;;;;;;;5036157;28;20190;-56
2020/12/07 00:36:18;;;;;;;6.80;3.97;;;;;;;;;;5036129;28;20076;-57
2020/12/07 00:38:44;;;;;;;8.77;3.55;;;;;;;;;;5036320;28;20368;-56
2020/12/07 00:41:11;;;;;;;6.75;3.47;;;;;;;;;;5036391;28;20033;-56
2020/12/07 00:43:37;;;;;;;7.63;4.00;;;;;;;;;;5035803;28;20029;-56
2020/12/07 00:46:03;;;;;;;7.65;3.75;;;;;;;;;;5035971;28;20032;-56
2020/12/07 00:48:29;;;;;;;9.32;4.53;;;;;;;;;;5035934;28;20017;-56
2020/12/07 00:50:55;;;;;;;7.80;4.03;;;;;;;;;;5035839;28;20030;-56
2020/12/07 00:53:21;;;;;;;12.35;4.97;;;;;;;;;;5036112;28;20378;-56
2020/12/07 00:55:47;;;;;;;9.55;4.80;;;;;;;;;;5035662;28;20036;-56
2020/12/07 00:58:14;;;;;;;8.30;4.30;;;;;;;;;;5035518;28;20025;-56
2020/12/07 01:00:40;;;;;;;8.65;4.50;;;;;;;;;;5035966;28;20029;-56
2020/12/07 01:03:06;;;;;;;11.85;5.00;;;;;;;;;;5035815;28;20032;-56
2020/12/07 01:05:32;;;;;;;10.38;5.03;;;;;;;;;;5035881;28;20037;-56
2020/12/07 01:07:58;;;;;;;8.27;5.25;;;;;;;;;;5035454;28;20045;-56
2020/12/07 01:10:24;;;;;;;11.50;5.50;;;;;;;;;;5035831;28;20430;-56
2020/12/07 01:12:50;;;;;;;10.23;5.57;;;;;;;;;;5035385;28;20017;-56
2020/12/07 01:15:16;;;;;;;7.82;5.28;;;;;;;;;;5035518;28;20036;-53
2020/12/07 01:17:43;;;;;;;9.88;4.80;;;;;;;;;;5035209;28;20049;-56
2020/12/07 01:20:09;;;;;;;6.75;4.00;;;;;;;;;;5035279;28;20041;-56
2020/12/07 01:22:36;;;;;;;10.02;4.95;;;;;;;;;;5035591;28;20079;-52
2020/12/07 01:25:02;;;;;;;8.82;4.72;;;;;;;;;;5035142;28;20041;-55
2020/12/07 01:27:28;;;;;;;12.25;5.90;;;;;;;;;;5035263;28;20075;-56
2020/12/07 01:29:55;;;;;;;8.43;5.13;;;;;;;;;;5016910;28;20474;-57
2020/12/07 01:32:21;;;;;;;6.22;4.82;;;;;;;;;;5035101;28;20029;-56
2020/12/07 01:34:49;;;;;;;8.75;4.45;;;;;;;;;;5034903;28;20109;-56
2020/12/07 01:37:15;;;;;;;8.43;5.65;;;;;;;;;;5035043;28;20036;-54
2020/12/07 01:39:41;;;;;;;12.85;6.35;;;;;;;;;;5034719;28;20043;-56
2020/12/07 01:42:07;;;;;;;12.95;7.78;;;;;;;;;;5035119;28;20027;-56
2020/12/07 01:44:34;;;;;;;12.07;8.23;;;;;;;;;;5035002;28;20484;-56
2020/12/07 01:47:10;;;;;;;13.48;7.13;;;;;;;;;;5035075;28;20021;-56
2020/12/07 01:49:37;;;;;;;12.88;5.95;;;;;;;;;;5034930;28;20034;-53
2020/12/07 01:52:03;;;;;;;9.98;6.00;;;;;;;;;;5035094;28;20021;-54
2020/12/07 01:54:29;;;;;;;10.90;6.18;;;;;;;;;;5034609;28;20029;-56
2020/12/07 01:56:55;;;;;;;9.15;5.47;;;;;;;;;;5034664;28;20025;-56
2020/12/07 01:59:21;;;;;;;11.13;6.65;;;;;;;;;;5034400;28;20042;-56
2020/12/07 02:01:47;;;;;;;13.90;6.65;;;;;;;;;;5033907;28;20057;-54
2020/12/07 02:04:14;;;;;;;10.60;5.60;;;;;;;;;;5034404;28;20075;-56
2020/12/07 02:06:40;;;;;;;10.20;6.45;;;;;;;;;;5034442;28;20036;-56
2020/12/07 02:09:06;;;;;;;12.50;6.68;;;;;;;;;;5034027;28;20046;-56
2020/12/07 02:11:32;;;;;;;12.38;6.03;;;;;;;;;;5034355;28;20029;-56
2020/12/07 02:13:58;;;;;;;10.73;5.90;;;;;;;;;;5034114;28;20148;-56
2020/12/07 02:16:24;;;;;;;10.63;6.10;;;;;;;;;;5033982;28;20033;-54
2020/12/07 02:18:50;;;;;;;9.57;6.15;;;;;;;;;;5033972;28;20040;-56
2020/12/07 02:21:16;;;;;;;8.50;5.60;;;;;;;;;;5034428;28;20025;-55
2020/12/07 02:23:42;;;;;;;9.98;4.80;;;;;;;;;;5034273;28;20052;-56
2020/12/07 02:26:09;;;;;;;6.45;4.38;;;;;;;;;;5033982;28;20488;-54
2020/12/07 02:28:35;;;;;;;9.15;5.03;;;;;;;;;;5034185;28;20520;-55
2020/12/07 02:31:01;;;;;;;11.70;5.32;;;;;;;;;;5033878;28;20463;-55
2020/12/07 02:33:27;;;;;;;7.88;5.28;;;;;;;;;;5033925;28;20438;-55
2020/12/07 02:35:53;;;;;;;7.22;5.07;;;;;;;;;;5034177;28;20382;-54
2020/12/07 02:38:19;;;;;;;6.00;4.18;;;;;;;;;;5034052;28;20040;-56
2020/12/07 02:40:45;;;;;;;6.90;4.90;;;;;;;;;;5033327;28;20049;-55
2020/12/07 02:43:12;;;;;;;9.93;4.45;;;;;;;;;;5033985;28;20394;-56
2020/12/07 02:45:38;;;;;;;10.75;4.72;;;;;;;;;;5033648;28;20021;-55
2020/12/07 02:48:04;;;;;;;13.20;6.63;;;;;;;;;;5033573;28;20036;-54
2020/12/07 02:50:30;;;;;;;8.50;4.90;;;;;;;;;;5033984;28;20028;-56
2020/12/07 02:52:56;;;;;;;8.70;5.93;;;;;;;;;;5033810;28;20029;-54
2020/12/07 02:55:22;;;;;;;6.32;4.50;;;;;;;;;;5033734;28;20182;-55
2020/12/07 02:57:48;;;;;;;7.65;3.83;;;;;;;;;;5033845;28;20033;-56
2020/12/07 03:00:15;;;;;;;6.72;4.32;;;;;;;;;;5033655;28;20033;-56
2020/12/07 03:02:41;;;;;;;7.00;5.10;;;;;;;;;;5033690;28;20021;-55
2020/12/07 03:05:07;;;;;;;7.13;4.78;;;;;;;;;;5033527;28;20041;-56
2020/12/07 03:07:33;;;;;;;8.20;5.25;;;;;;;;;;5033266;28;20128;-56
2020/12/07 03:09:59;;;;;;;10.10;4.57;;;;;;;;;;5015579;28;20421;-54
2020/12/07 03:12:26;;;;;;;9.38;4.85;;;;;;;;;;5033350;28;20501;-56
2020/12/07 03:14:52;;;;;;;7.15;4.78;;;;;;;;;;5033166;28;20213;-56
2020/12/07 03:17:18;;;;;;;10.82;6.10;;;;;;;;;;5033297;28;20482;-56
2020/12/07 03:19:44;;;;;;;10.02;5.85;;;;;;;;;;5015535;28;20044;-56
2020/12/07 03:22:10;;;;;;;17.63;7.10;;;;;;;;;;5033333;28;20091;-56
2020/12/07 03:24:37;;;;;;;10.90;6.88;;;;;;;;;;5033120;28;20033;-54
2020/12/07 03:27:03;;;;;;;9.48;6.78;;;;;;;;;;5015485;28;20026;-56
2020/12/07 03:29:29;;;;;;;11.90;6.38;;;;;;;;;;5033060;28;20037;-56
2020/12/07 03:31:55;;;;;;;10.77;6.85;;;;;;;;;;5033016;28;20018;-56
2020/12/07 03:34:21;;;;;;;11.25;7.13;;;;;;;;;;5033121;28;20057;-54
2020/12/07 03:36:48;;;;;;;13.95;6.50;;;;;;;;;;5033111;28;20024;-55
2020/12/07 03:39:14;;;;;;;10.80;6.20;;;;;;;;;;5033257;28;20416;-55
2020/12/07 03:41:41;;;;;;;9.43;6.45;;;;;;;;;;5033206;28;20022;-55
2020/12/07 03:44:07;;;;;;;10.05;6.32;;;;;;;;;;5033081;28;20029;-55
2020/12/07 03:46:33;;;;;;;10.23;6.32;;;;;;;;;;5032833;28;20036;-55
2020/12/07 03:48:59;;;;;;;13.77;7.28;;;;;;;;;;5033328;28;20047;-53
2020/12/07 03:51:25;;;;;;;11.23;6.25;;;;;;;;;;5033797;28;20056;-55
2020/12/07 03:53:51;;;;;;;11.60;6.95;;;;;;;;;;5036901;28;20055;-55
2020/12/07 03:56:18;;;;;;;12.00;7.15;;;;;;;;;;5036772;28;20028;-57
2020/12/07 03:58:44;;;;;;;13.43;6.68;;;;;;;;;;5036804;28;20037;-55
2020/12/07 04:01:10;;;;;;;10.20;5.60;;;;;;;;;;5036735;28;20025;-55
2020/12/07 04:03:37;;;;;;;7.07;4.82;;;;;;;;;;5036902;28;20025;-55
2020/12/07 04:08:30;;;;;;;7.78;5.22;;;;;;;;;;5036580;28;20387;-54
2020/12/07 04:10:56;;;;;;;8.40;5.95;;;;;;;;;;5036710;28;20026;-56
2020/12/07 04:13:23;;;;;;;7.78;5.72;;;;;;;;;;5036785;28;20055;-55
2020/12/07 04:15:49;;;;;;;8.60;5.50;;;;;;;;;;5036753;28;20529;-51
2020/12/07 04:18:15;;;;;;;7.75;5.70;;;;;;;;;;5036674;28;20033;-55
2020/12/07 04:20:42;;;;;;;10.10;6.25;;;;;;;;;;5036488;28;20021;-52
2020/12/07 04:23:08;;;;;;;12.52;6.60;;;;;;;;;;5036415;28;20040;-55
2020/12/07 04:25:34;;;;;;;8.10;6.00;;;;;;;;;;5036309;28;20040;-54
2020/12/07 04:28:00;;;;;;;13.10;5.70;;;;;;;;;;5036492;28;20426;-55
2020/12/07 04:30:26;;;;;;;10.65;6.70;;;;;;;;;;5036236;28;20026;-56
2020/12/07 04:32:52;;;;;;;8.27;6.22;;;;;;;;;;5036149;28;20033;-53
2020/12/07 04:35:18;;;;;;;12.07;6.95;;;;;;;;;;5036015;28;20027;-51
2020/12/07 04:37:45;;;;;;;7.88;5.75;;;;;;;;;;5035985;28;20026;-54
2020/12/07 04:40:11;;;;;;;8.93;6.05;;;;;;;;;;5035958;28;20037;-55
2020/12/07 04:42:40;;;;;;;11.60;6.07;;;;;;;;;;5035784;28;20029;-56
2020/12/07 04:45:06;;;;;;;9.05;5.25;;;;;;;;;;5036303;28;20056;-56
2020/12/07 04:47:33;;;;;;;7.95;5.03;;;;;;;;;;5035808;28;20029;-56
2020/12/07 04:50:02;;;;;;;7.68;5.97;;;;;;;;;;5036190;28;20060;-51
2020/12/07 04:52:28;;;;;;;7.93;5.78;;;;;;;;;;5036160;28;20520;-54
2020/12/07 04:54:56;;;;;;;10.10;6.28;;;;;;;;;;5035812;28;20026;-53
2020/12/07 04:57:22;;;;;;;8.50;6.20;;;;;;;;;;5035652;28;20026;-54
2020/12/07 04:59:48;;;;;;;10.07;6.30;;;;;;;;;;5035629;28;20037;-56
2020/12/07 05:02:15;;;;;;;8.98;5.80;;;;;;;;;;5035766;28;20048;-56
2020/12/07 05:04:41;;;;;;;7.80;6.13;;;;;;;;;;5034969;28;20072;-55
2020/12/07 05:07:11;;;;;;;13.27;6.93;;;;;;;;;;5035500;28;20071;-56
2020/12/07 05:09:39;;;;;;;11.02;6.57;;;;;;;;;;5035569;28;20045;-54
2020/12/07 05:12:13;;;;;;;8.52;6.40;;;;;;;;;;5035457;28;20047;-56
2020/12/07 05:14:39;;;;;;;10.07;5.70;;;;;;;;;;5035444;28;20507;-55
2020/12/07 05:17:05;;;;;;;8.65;5.22;;;;;;;;;;5035331;28;20043;-55
2020/12/07 05:19:31;;;;;;;11.20;5.07;;;;;;;;;;5035382;28;20041;-55
2020/12/07 05:21:58;;;;;;;10.15;5.43;;;;;;;;;;5035341;28;20025;-55
2020/12/07 05:24:25;;;;;;;7.03;4.60;;;;;;;;;;5035172;28;20029;-52
2020/12/07 05:26:52;;;;;;;9.60;5.32;;;;;;;;;;5035283;28;20109;-53
2020/12/07 05:29:33;;;;;;;7.35;4.95;;;;;;;;;;5035489;28;20040;-55
2020/12/07 05:31:59;;;;;;;6.93;4.38;;;;;;;;;;5035085;28;20470;-53
2020/12/07 05:34:26;;;;;;;9.52;5.55;;;;;;;;;;5035160;28;20061;-55
2020/12/07 05:36:56;;;;;;;8.85;5.07;;;;;;;;;;5035152;28;20022;-50
2020/12/07 05:39:24;;;;;;;10.85;5.03;;;;;;;;;;5034855;28;20080;-54
2020/12/07 05:41:51;;;;;;;13.15;4.63;;;;;;;;;;5034997;28;20041;-51
2020/12/07 05:44:17;;;;;;;7.40;4.43;;;;;;;;;;5034893;28;20030;-55
2020/12/07 05:46:46;;;;;;;13.40;5.20;;;;;;;;;;5035025;28;20030;-55
2020/12/07 05:49:14;;;;;;;10.15;4.63;;;;;;;;;;5034855;28;20041;-55
2020/12/07 05:51:41;;;;;;;6.22;4.25;;;;;;;;;;5034866;28;20021;-55
2020/12/07 05:54:09;;;;;;;9.63;4.75;;;;;;;;;;5016999;28;20025;-55
2020/12/07 05:56:39;;;;;;;6.70;4.72;;;;;;;;;;5035084;28;20053;-55
2020/12/07 05:59:19;;;;;;;9.45;5.20;;;;;;;;;;5034524;28;20041;-56
2020/12/07 06:01:47;;;;;;;7.75;4.93;;;;;;;;;;5016800;28;20026;-55
2020/12/07 06:04:14;;;;;;;7.57;5.20;;;;;;;;;;5034413;28;20103;-55
2020/12/07 06:06:42;;;;;;;10.27;4.28;;;;;;;;;;5034778;28;20025;-56
2020/12/07 06:09:10;;;;;;;9.88;5.75;;;;;;;;;;5034160;28;20060;-54
2020/12/07 06:11:48;;;;;;;9.85;4.68;;;;;;;;;;5034355;28;20111;-54
2020/12/07 06:14:14;;;;;;;9.52;4.70;;;;;;;;;;5034213;28;20026;-54
2020/12/07 06:16:42;;;;;;;7.80;4.20;;;;;;;;;;5034586;28;20075;-55
2020/12/07 06:19:15;;;;;;;9.35;3.70;;;;;;;;;;5034278;28;20124;-54
2020/12/07 06:21:53;;;;;;;9.68;4.25;;;;;;;;;;5034455;28;20036;-55
2020/12/07 06:24:19;;;;;;;9.13;4.55;;;;;;;;;;5034079;28;20108;-56
2020/12/07 06:26:59;;;;;;;12.68;5.75;;;;;;;;;;5034385;28;20111;-55
2020/12/07 06:29:25;;;;;;;10.32;4.82;;;;;;;;;;5033878;28;20017;-55
2020/12/07 06:31:51;;;;;;;10.15;4.68;;;;;;;;;;5033938;28;20079;-52
2020/12/07 06:34:18;;;;;;;7.82;4.85;;;;;;;;;;5034131;28;20021;-55
2020/12/07 06:36:44;;;;;;;9.77;4.07;;;;;;;;;;5033921;28;20091;-54
2020/12/07 06:39:11;;;;;;;9.57;4.80;;;;;;;;;;5033985;28;20389;-55
2020/12/07 06:41:39;;;;;;;11.52;4.60;;;;;;;;;;5033794;28;20025;-54
2020/12/07 06:44:07;;;;;;;10.98;3.95;;;;;;;;;;5033712;28;20021;-54
2020/12/07 06:46:55;;;;;;;9.50;4.85;;;;;;;;;;5033589;28;20108;-54
2020/12/07 06:49:33;;;;;;;12.15;5.10;;;;;;;;;;5015950;28;20048;-55
2020/12/07 06:52:06;;;;;;;6.75;4.82;;;;;;;;;;5033751;28;20033;-54
2020/12/07 06:57:21;;;;;;;10.32;4.82;;;;;;;;;;5033892;28;20445;-55
2020/12/07 06:59:58;;;;;;;11.30;5.13;;;;;;;;;;5033508;28;20072;-54
2020/12/07 07:02:25;;;;;;;8.45;4.60;;;;;;;;;;5033576;28;20048;-52
2020/12/07 07:04:52;;;;;;;6.05;5.00;;;;;;;;;;5033220;28;20037;-53
2020/12/07 07:07:19;;;;;;;7.75;5.75;;;;;;;;;;5033325;28;20348;-50
2020/12/07 07:09:45;;;;;;;6.88;5.18;;;;;;;;;;5033312;28;20038;-55
2020/12/07 07:12:12;;;;;;;16.85;5.85;;;;;;;;;;5033644;28;20360;-52
2020/12/07 07:14:38;;;;;;;10.98;6.03;;;;;;;;;;5033503;28;20389;-55
2020/12/07 07:17:04;;;;;;;7.55;6.47;;;;;;;;;;5033537;28;20398;-49
2020/12/07 07:19:30;;;;;;;9.18;5.90;;;;;;;;;;5015318;28;20124;-52
2020/12/07 07:21:58;;;;;;;11.18;6.70;;;;;;;;;;5015420;28;20393;-54
2020/12/07 07:24:26;;;;;;;9.32;6.47;;;;;;;;;;5033102;28;20417;-53
2020/12/07 07:27:00;;;;;;;10.82;6.57;;;;;;;;;;5032633;28;20033;-53
2020/12/07 07:29:26;;;;;;;11.20;6.63;;;;;;;;;;5033162;28;20021;-53
2020/12/07 07:31:52;;;;;;;14.13;6.25;;;;;;;;;;5033079;28;20159;-55
2020/12/07 07:34:18;;;;;;;11.23;6.78;;;;;;;;;;5032922;28;20029;-56
2020/12/07 07:36:45;;;;;;;12.32;7.07;;;;;;;;;;5032967;28;20104;-55
2020/12/07 07:39:14;;;;;;;12.63;7.60;;;;;;;;;;5033193;28;20120;-55
2020/12/07 07:41:42;;;;;;;11.07;7.13;;;;;;;;;;5032797;28;20033;-56
2020/12/07 07:44:08;;;;;;;7.78;5.10;;;;;;;;;;5033041;28;20482;-56
2020/12/07 07:46:36;;;;;;;9.65;4.35;;;;;;;;;;5033196;28;20056;-55
2020/12/07 07:52:15;;;;;;;5.95;2.90;;;;;;;;;;5032932;28;20029;-53
2020/12/07 08:00:26;;;;;;;6.53;3.10;;;;;;;;;;5032864;28;20088;-53
2020/12/07 08:11:54;;;;;;;6.63;2.65;;;;;;;;;;5032756;28;20060;-56
2020/12/07 08:16:34;;;;;;;6.18;3.08;;;;;;;;;;5032756;28;20403;-55
2020/12/07 08:19:00;;;;;;;9.80;2.65;;;;;;;;;;5032636;28;20441;-55
2020/12/07 08:21:27;;;;;;;4.28;2.75;;;;;;;;;;5014695;28;20093;-56
2020/12/07 08:23:54;;;;;;;4.55;2.60;;;;;;;;;;5032849;28;20079;-55
2020/12/07 08:26:20;;;;;;;4.93;2.70;;;;;;;;;;5032993;28;20116;-54
2020/12/07 08:28:53;;;;;;;6.93;3.22;;;;;;;;;;5032796;28;20382;-55
2020/12/07 08:31:19;;;;;;;6.38;3.70;;;;;;;;;;5032484;28;20030;-55
2020/12/07 08:33:55;;;;;;;7.10;3.20;;;;;;;;;;5032234;28;20021;-55
2020/12/07 08:36:21;;;;;;;6.20;2.88;;;;;;;;;;5030475;28;20029;-56
2020/12/07 08:38:48;;;;;;;17.45;7.03;;;;;;;;;;5033667;28;20084;-56
2020/12/07 08:41:18;;;;;;;9.85;5.47;;;;;;;;;;5018322;28;20029;-56
2020/12/07 08:43:48;;;;;;;33.50;21.52;;;;;;;;;;5036033;28;20024;-56
2020/12/07 08:46:16;;;;;;;9.27;3.95;;;;;;;;;;5036153;28;20030;-55
2020/12/07 08:48:43;;;;;;;10.43;4.72;;;;;;;;;;5035770;28;20101;-55
2020/12/07 08:51:09;;;;;;;11.95;6.95;;;;;;;;;;5018045;28;20029;-53
2020/12/07 08:53:37;;;;;;;15.20;8.10;;;;;;;;;;5036068;28;20481;-54
2020/12/07 08:56:04;;;;;;;11.43;6.28;;;;;;;;;;5035735;28;20026;-56
2020/12/07 08:58:30;;;;;;;12.35;5.18;;;;;;;;;;5035788;28;20390;-54
2020/12/07 09:00:56;;;;;;;6.55;3.63;;;;;;;;;;5035550;28;20040;-55
2020/12/07 09:03:23;;;;;;;9.15;4.35;;;;;;;;;;5035637;28;20474;-55
2020/12/07 09:05:49;;;;;;;5.75;2.95;;;;;;;;;;5035504;28;20033;-52
2020/12/07 09:08:16;;;;;;;6.15;2.80;;;;;;;;;;5035491;28;20608;-57
2020/12/07 09:10:42;;;;;;;9.02;3.45;;;;;;;;;;5017930;28;20036;-57
2020/12/07 09:13:08;;;;;;;8.15;3.70;;;;;;;;;;5035374;28;20022;-57
2020/12/07 09:15:34;;;;;;;11.30;6.78;;;;;;;;;;5035186;28;20060;-58
2020/12/07 09:18:00;;;;;;;8.77;3.83;;;;;;;;;;5035656;28;20421;-59
2020/12/07 09:20:27;;;;;;;5.93;2.35;;;;;;;;;;5035507;28;20052;-58
2020/12/07 09:22:53;;;;;;;7.13;3.05;;;;;;;;;;5017633;28;20151;-58
2020/12/07 09:25:19;;;;;;;5.63;2.00;;;;;;;;;;5035192;28;20037;-57
2020/12/07 09:27:45;;;;;;;4.03;1.55;;;;;;;;;;5035354;28;20021;-58
2020/12/07 09:30:12;;;;;;;2.90;1.20;;;;;;;;;;5035450;28;20037;-57
2020/12/07 09:32:38;;;;;;;3.40;1.40;;;;;;;;;;5035259;28;20415;-58
2020/12/07 09:35:07;;;;;;;3.15;1.48;;;;;;;;;;5034981;28;20438;-58
2020/12/07 09:37:34;;;;;;;2.95;1.13;;;;;;;;;;5034919;28;20032;-57
2020/12/07 09:40:00;;;;;;;4.53;1.77;;;;;;;;;;5034773;28;20482;-57
2020/12/07 09:42:26;;;;;;;5.85;1.80;;;;;;;;;;5034770;28;20018;-58
2020/12/07 09:44:52;;;;;;;3.95;1.27;;;;;;;;;;5034838;28;20061;-57
2020/12/07 09:47:18;;;;;;;3.00;1.30;;;;;;;;;;5034116;28;20030;-58
2020/12/07 09:49:44;;;;;;;3.60;1.73;;;;;;;;;;5034665;28;20029;-58
2020/12/07 09:52:11;;;;;;;3.65;1.77;;;;;;;;;;5013998;28;20108;-57
2020/12/07 09:54:38;;;;;;;2.65;1.45;;;;;;;;;;5028026;28;20084;-57
2020/12/07 09:57:05;;;;;;;5.28;1.80;;;;;;;;;;5032133;28;20025;-58
2020/12/07 09:59:32;;;;;;;1.88;0.95;;;;;;;;;;5030490;28;20386;-58
2020/12/07 10:01:58;;;;;;;4.90;1.10;;;;;;;;;;5028490;28;20478;-58
2020/12/07 10:04:24;;;;;;;2.17;0.93;;;;;;;;;;5031320;28;20044;-58
2020/12/07 10:06:51;;;;;;;3.05;1.10;;;;;;;;;;5031732;28;20026;-58
2020/12/07 10:09:17;;;;;;;1.98;1.00;;;;;;;;;;5031116;28;20081;-58
2020/12/07 10:11:43;;;;;;;3.65;1.02;;;;;;;;;;5032640;28;20037;-58
2020/12/07 10:14:09;;;;;;;1.90;0.90;;;;;;;;;;5032555;28;20445;-58
2020/12/07 10:16:36;;;;;;;5.78;0.75;;;;;;;;;;5017644;28;20471;-58
2020/12/07 10:19:02;;;;;;;4.93;1.20;;;;;;;;;;5012293;28;20467;-58
2020/12/07 10:21:28;;;;;;;5.82;1.73;;;;;;;;;;5012343;28;20092;-58
2020/12/07 10:23:55;;;;;;;5.43;1.80;;;;;;;;;;5012441;28;20117;-58
2020/12/07 10:26:24;;;;;;;4.45;1.30;;;;;;;;;;5011541;28;20381;-58
2020/12/07 10:28:51;;;;;;;3.13;1.40;;;;;;;;;;5012542;28;20439;-56
2020/12/07 10:31:19;;;;;;;5.53;1.98;;;;;;;;;;5012450;28;20066;-57
2020/12/07 10:33:45;;;;;;;10.50;3.30;;;;;;;;;;5011489;28;20033;-58
2020/12/07 10:36:11;;;;;;;6.45;3.13;;;;;;;;;;5012144;28;20104;-57
2020/12/07 10:38:37;;;;;;;3.33;1.52;;;;;;;;;;5012350;28;20044;-58
2020/12/07 10:41:03;;;;;;;6.63;1.60;;;;;;;;;;5012625;28;20029;-58
2020/12/07 10:43:30;;;;;;;5.47;1.90;;;;;;;;;;5011857;28;20116;-58
2020/12/07 10:45:56;;;;;;;8.25;2.55;;;;;;;;;;5010915;28;20034;-52
2020/12/07 10:48:22;;;;;;;4.80;2.10;;;;;;;;;;5011026;28;20088;-59
2020/12/07 10:50:49;;;;;;;12.48;5.07;;;;;;;;;;5011587;28;20045;-57
2020/12/07 10:53:15;;;;;;;19.10;8.25;;;;;;;;;;5011948;28;20037;-58
2020/12/07 10:55:41;;;;;;;8.25;2.58;;;;;;;;;;5012043;28;20471;-58
2020/12/07 10:58:08;;;;;;;6.55;2.15;;;;;;;;;;5011936;28;20033;-54
2020/12/07 11:00:36;;;;;;;4.95;1.73;;;;;;;;;;5011641;28;20034;-56
2020/12/07 11:03:03;;;;;;;2.97;1.58;;;;;;;;;;5011799;28;20398;-58
2020/12/07 11:05:29;;;;;;;6.93;3.75;;;;;;;;;;5011945;28;20033;-52
2020/12/07 11:07:55;;;;;;;7.55;3.08;;;;;;;;;;5027706;28;20085;-56
2020/12/07 11:10:22;;;;;;;9.30;4.28;;;;;;;;;;5031754;28;20481;-59
2020/12/07 11:12:56;;;;;;;10.82;5.30;;;;;;;;;;5031236;28;20437;-58
2020/12/07 11:15:22;;;;;;;5.82;2.72;;;;;;;;;;5031844;28;20492;-58
2020/12/07 11:17:48;;;;;;;5.05;2.40;;;;;;;;;;5031482;28;20025;-57
2020/12/07 11:20:14;;;;;;;6.05;2.88;;;;;;;;;;5031372;28;20467;-58
2020/12/07 11:22:40;;;;;;;5.68;2.60;;;;;;;;;;5031479;28;20390;-58
2020/12/07 11:25:06;;;;;;;10.05;3.83;;;;;;;;;;5031537;28;20043;-58
2020/12/07 11:27:32;;;;;;;12.70;5.10;;;;;;;;;;5031211;28;20068;-58
2020/12/07 11:29:58;;;;;;;11.52;5.03;;;;;;;;;;5031588;28;20388;-58
2020/12/07 11:32:25;;;;;;;6.13;3.40;;;;;;;;;;5031154;28;20533;-54
2020/12/07 11:34:51;;;;;;;7.90;3.88;;;;;;;;;;5030853;28;20045;-58
2020/12/07 11:37:17;;;;;;;9.48;3.92;;;;;;;;;;5013863;28;20034;-58
2020/12/07 11:39:51;;;;;;;8.00;2.78;;;;;;;;;;5011582;28;20103;-58
2020/12/07 11:44:47;;;;;;;7.63;2.10;;;;;;;;;;4991853;28;20034;-54
2020/12/07 11:47:14;;;;;;;7.53;2.33;;;;;;;;;;4991669;28;20027;-58
2020/12/07 11:49:41;;;;;;;6.57;2.70;;;;;;;;;;4991645;28;20395;-58
2020/12/07 11:52:08;;;;;;;5.90;2.30;;;;;;;;;;4991759;28;20030;-58
2020/12/07 11:54:37;;;;;;;3.80;1.70;;;;;;;;;;4991458;28;20479;-58
2020/12/07 11:57:04;;;;;;;8.07;2.30;;;;;;;;;;4991827;28;20061;-58
2020/12/07 11:59:31;;;;;;;7.53;2.15;;;;;;;;;;4991863;28;20372;-58
2020/12/07 12:01:57;;;;;;;7.07;2.67;;;;;;;;;;4991213;28;20027;-58
2020/12/07 12:04:23;;;;;;;7.07;3.30;;;;;;;;;;4991633;28;20022;-58
2020/12/07 12:06:49;;;;;;;11.25;3.05;;;;;;;;;;4991582;28;20027;-57
2020/12/07 12:09:15;;;;;;;7.72;2.78;;;;;;;;;;5007983;28;20054;-56
2020/12/07 12:11:43;;;;;;;4.70;1.80;;;;;;;;;;5011032;28;20045;-58
2020/12/07 12:14:10;;;;;;;5.00;1.10;;;;;;;;;;5014926;28;20056;-58
2020/12/07 12:16:38;;;;;;;5.97;1.50;;;;;;;;;;5028409;28;20053;-58
2020/12/07 12:19:05;;;;;;;5.43;1.42;;;;;;;;;;5034473;28;20029;-57
2020/12/07 12:21:31;;;;;;;4.57;1.70;;;;;;;;;;5034354;28;20405;-58
2020/12/07 12:23:59;;;;;;;6.65;1.80;;;;;;;;;;5034557;28;20108;-57
2020/12/07 12:26:25;;;;;;;7.35;3.10;;;;;;;;;;5034498;28;20083;-58
2020/12/07 12:28:51;;;;;;;8.27;2.10;;;;;;;;;;5034307;28;20132;-58
2020/12/07 12:31:17;;;;;;;5.63;2.00;;;;;;;;;;5034414;28;20025;-57
2020/12/07 12:33:44;;;;;;;6.63;2.00;;;;;;;;;;5034279;28;20084;-58
2020/12/07 12:36:15;;;;;;;5.40;2.53;;;;;;;;;;5034494;28;20021;-58
2020/12/07 12:38:41;;;;;;;6.95;3.60;;;;;;;;;;5034180;28;22295;-58
2020/12/07 12:41:08;;;;;;;6.53;3.63;;;;;;;;;;5034366;28;20092;-57
2020/12/07 12:43:34;;;;;;;5.47;2.47;;;;;;;;;;5034173;28;20029;-58
2020/12/07 12:46:02;;;;;;;7.25;1.85;;;;;;;;;;5034346;28;20029;-58
2020/12/07 12:48:28;;;;;;;7.00;2.30;;;;;;;;;;5033914;28;20029;-57
2020/12/07 12:50:54;;;;;;;5.88;3.33;;;;;;;;;;5034472;28;20022;-58
2020/12/07 12:53:20;;;;;;;8.63;3.10;;;;;;;;;;5033811;28;20021;-57
2020/12/07 12:55:46;;;;;;;6.60;4.25;;;;;;;;;;5034425;28;20104;-57
2020/12/07 12:58:12;;;;;;;8.20;4.20;;;;;;;;;;5034117;28;20081;-58
2020/12/07 13:00:39;;;;;;;4.20;1.27;;;;;;;;;;5033775;28;20033;-58
2020/12/07 13:03:05;;;;;;;8.32;3.25;;;;;;;;;;5033847;28;20112;-58
2020/12/07 13:05:31;;;;;;;5.95;1.65;;;;;;;;;;5034119;28;20105;-58
2020/12/07 13:07:57;;;;;;;11.65;3.53;;;;;;;;;;5033697;28;20506;-58
2020/12/07 13:10:23;;;;;;;7.45;2.60;;;;;;;;;;5033679;28;20378;-58
2020/12/07 13:12:49;;;;;;;7.93;2.33;;;;;;;;;;5033736;28;20382;-56
2020/12/07 13:15:15;;;;;;;3.35;1.40;;;;;;;;;;5016143;28;20545;-58
2020/12/07 13:17:44;;;;;;;2.63;1.45;;;;;;;;;;5033817;28;20441;-58
2020/12/07 13:20:12;;;;;;;2.40;0.90;;;;;;;;;;5033648;28;20096;-58
2020/12/07 13:22:51;;;;;;;3.33;1.10;;;;;;;;;;5033585;28;20537;-57
2020/12/07 13:25:22;;;;;;;5.47;1.67;;;;;;;;;;5032799;28;20035;-58
2020/12/07 13:27:53;;;;;;;7.50;1.35;;;;;;;;;;5033788;28;20029;-57
2020/12/07 13:30:21;;;;;;;6.32;2.00;;;;;;;;;;5033579;28;20060;-58
2020/12/07 13:32:48;;;;;;;5.38;2.67;;;;;;;;;;5033292;28;20482;-58
2020/12/07 13:35:14;;;;;;;7.47;2.50;;;;;;;;;;5033416;28;20076;-58
2020/12/07 13:37:41;;;;;;;12.73;4.38;;;;;;;;;;5015623;28;20047;-57
2020/12/07 13:40:07;;;;;;;5.43;1.80;;;;;;;;;;5033128;28;20041;-58
2020/12/07 13:42:33;;;;;;;4.13;1.13;;;;;;;;;;5032572;28;20029;-58
2020/12/07 13:44:59;;;;;;;6.47;1.60;;;;;;;;;;5033366;28;20029;-58
2020/12/07 13:47:26;;;;;;;3.63;1.98;;;;;;;;;;5033101;28;20021;-57
2020/12/07 13:49:52;;;;;;;6.93;2.50;;;;;;;;;;5032642;28;20033;-57
2020/12/07 13:52:19;;;;;;;9.30;2.17;;;;;;;;;;5032646;28;20029;-58
2020/12/07 13:54:45;;;;;;;3.47;1.63;;;;;;;;;;5032896;28;20029;-55
2020/12/07 13:57:12;;;;;;;3.03;1.50;;;;;;;;;;5019452;28;20140;-57
2020/12/07 13:59:38;;;;;;;12.43;6.13;;;;;;;;;;5012730;28;20048;-56
2020/12/07 14:02:04;;;;;;;7.28;3.92;;;;;;;;;;5013126;28;20021;-58
2020/12/07 14:04:41;;;;;;;7.53;4.00;;;;;;;;;;5013207;28;20113;-58
2020/12/07 14:07:07;;;;;;;6.25;1.60;;;;;;;;;;5013022;28;20029;-55
2020/12/07 14:09:33;;;;;;;3.85;1.48;;;;;;;;;;5031833;28;20599;-57
2020/12/07 14:12:01;;;;;;;6.13;1.40;;;;;;;;;;5032320;28;20022;-58
2020/12/07 14:14:27;;;;;;;5.22;1.60;;;;;;;;;;5033055;28;20032;-57
2020/12/07 14:17:01;;;;;;;6.43;1.77;;;;;;;;;;5032032;28;20576;-49
2020/12/07 14:19:36;;;;;;;3.55;1.60;;;;;;;;;;5032008;28;20430;-56
2020/12/07 14:22:34;;;;;;;6.88;2.35;;;;;;;;;;5029813;28;20036;-51
2020/12/07 14:38:54;;;;;;;9.10;4.22;;;;;;;;;;5032161;28;20044;-57
2020/12/07 14:41:22;;;;;;;7.60;4.80;;;;;;;;;;5032043;28;20033;-58
2020/12/07 14:43:48;;;;;;;8.68;5.00;;;;;;;;;;5032028;28;20047;-57
2020/12/07 14:46:26;;;;;;;8.68;4.88;;;;;;;;;;5031694;28;20581;-58
2020/12/07 14:48:53;;;;;;;9.07;4.15;;;;;;;;;;5015660;28;20461;-57
2020/12/07 14:53:59;;;;;;;8.93;3.17;;;;;;;;;;5031939;28;20038;-57
2020/12/07 15:02:29;;;;;;;7.80;3.45;;;;;;;;;;5030093;28;20022;-51
2020/12/07 15:15:40;;;;;;;16.67;8.82;;;;;;;;;;5031568;28;20025;-56
2020/12/07 15:18:06;;;;;;;21.05;13.20;;;;;;;;;;5031268;28;20029;-58
2020/12/07 15:20:32;;;;;;;23.50;14.98;;;;;;;;;;5029858;28;20486;-57
2020/12/07 15:22:59;;;;;;;19.33;10.15;;;;;;;;;;5031118;28;20028;-57
2020/12/07 15:25:25;;;;;;;11.30;7.82;;;;;;;;;;5031581;28;20022;-58
2020/12/07 15:27:51;;;;;;;17.33;8.25;;;;;;;;;;5031068;28;20025;-57
2020/12/07 15:30:18;;;;;;;13.35;6.65;;;;;;;;;;5031294;28;20120;-58
2020/12/07 15:32:44;;;;;;;11.68;6.50;;;;;;;;;;5030910;28;20057;-58
2020/12/07 15:35:10;;;;;;;15.93;7.10;;;;;;;;;;5031329;28;20026;-58
2020/12/07 15:37:36;;;;;;;19.42;8.27;;;;;;;;;;5031357;28;20025;-58
2020/12/07 15:40:06;;;;;;;25.08;10.07;;;;;;;;;;5031003;28;20030;-58